createdAt,value
2019-05-23T00:01:18.879Z,98253.38
2019-05-23T00:03:49.973Z,98244.98
2019-05-23T00:06:24.035Z,98241.30
2019-05-23T00:08:55.298Z,98240.45
2019-05-23T00:11:29.338Z,98243.22
2019-05-23T00:14:00.499Z,98244.95
2019-05-23T00:16:30.913Z,98244.88
2019-05-23T00:19:00.536Z,98245.77
2019-05-23T00:21:30.799Z,98236.41
2019-05-23T00:24:00.780Z,98244.03
2019-05-23T00:26:30.216Z,98241.43
2019-05-23T00:29:10.133Z,98246.58
2019-05-23T00:31:51.633Z,98243.72
2019-05-23T00:34:21.614Z,98241.15
2019-05-23T00:36:51.227Z,98248.42
2019-05-23T00:39:21.322Z,98239.55
2019-05-23T00:41:51.431Z,98239.05
2019-05-23T00:44:21.034Z,98240.30
2019-05-23T00:46:50.953Z,98243.81
2019-05-23T00:49:20.408Z,98234.11
2019-05-23T00:51:50.336Z,98232.50
2019-05-23T00:54:19.966Z,98233.76
2019-05-23T00:56:50.464Z,98230.86
2019-05-23T00:59:27.254Z,98226.11
2019-05-23T01:01:52.477Z,98227.83
2019-05-23T01:04:22.642Z,98237.20
2019-05-23T01:06:52.257Z,98230.86
2019-05-23T01:09:22.774Z,98234.25
2019-05-23T01:11:52.234Z,98235.19
2019-05-23T01:14:22.303Z,98238.98
2019-05-23T01:16:51.738Z,98237.84
2019-05-23T01:19:21.350Z,98234.80
2019-05-23T01:21:55.421Z,98239.63
2019-05-23T01:24:42.131Z,98230.56
2019-05-23T01:27:13.243Z,98228.14
2019-05-23T01:29:49.714Z,98231.08
2019-05-23T01:32:23.606Z,98222.93
2019-05-23T01:34:53.854Z,98225.11
2019-05-23T01:37:24.729Z,98224.80
2019-05-23T01:39:54.829Z,98226.98
2019-05-23T01:42:25.879Z,98228.88
2019-05-23T01:44:55.758Z,98222.80
2019-05-23T01:47:26.257Z,98224.51
2019-05-23T01:49:56.809Z,98222.83
2019-05-23T01:52:26.344Z,98218.03
2019-05-23T01:54:56.105Z,98221.91
2019-05-23T01:57:26.279Z,98218.63
2019-05-23T02:00:09.089Z,98225.86
2019-05-23T02:02:29.235Z,98221.58
2019-05-23T02:04:59.323Z,98224.96
2019-05-23T02:07:30.619Z,98223.31
2019-05-23T02:10:00.322Z,98223.69
2019-05-23T02:12:30.950Z,98225.39
2019-05-23T02:15:00.641Z,98226.33
2019-05-23T02:17:31.518Z,98224.55
2019-05-23T02:20:01.745Z,98228.84
2019-05-23T02:22:31.340Z,98225.90
2019-05-23T02:25:02.325Z,98220.44
2019-05-23T02:27:33.101Z,98233.72
2019-05-23T02:30:02.606Z,98224.69
2019-05-23T02:32:34.067Z,98225.56
2019-05-23T02:35:06.250Z,98232.47
2019-05-23T02:37:38.600Z,98219.30
2019-05-23T02:40:12.270Z,98225.72
2019-05-23T02:42:43.355Z,98219.36
2019-05-23T02:45:20.827Z,98222.69
2019-05-23T02:47:50.563Z,98224.83
2019-05-23T02:50:39.930Z,98227.80
2019-05-23T02:53:13.714Z,98223.52
2019-05-23T02:55:45.081Z,98216.75
2019-05-23T02:58:44.030Z,98221.03
2019-05-23T03:01:34.451Z,98217.19
2019-05-23T03:04:06.297Z,98224.03
2019-05-23T03:06:38.083Z,98219.31
2019-05-23T03:09:08.593Z,98219.83
2019-05-23T03:11:40.108Z,98219.41
2019-05-23T03:14:10.843Z,98215.58
2019-05-23T03:16:43.184Z,98218.98
2019-05-23T03:19:32.339Z,98217.27
2019-05-23T03:22:25.093Z,98215.57
2019-05-23T03:24:55.079Z,98219.41
2019-05-23T03:27:26.433Z,98219.42
2019-05-23T03:29:56.438Z,98219.41
2019-05-23T03:32:37.563Z,98219.42
2019-05-23T03:35:06.045Z,98216.83
2019-05-23T03:37:35.727Z,98223.67
2019-05-23T03:40:08.424Z,98221.48
2019-05-23T03:42:38.711Z,98215.50
2019-05-23T03:45:10.429Z,98218.92
2019-05-23T03:47:40.523Z,98212.45
2019-05-23T03:50:11.746Z,98211.22
2019-05-23T03:52:41.946Z,98209.54
2019-05-23T03:55:11.895Z,98212.60
2019-05-23T03:57:42.671Z,98208.33
2019-05-23T04:00:15.759Z,98208.77
2019-05-23T04:02:46.214Z,98215.99
2019-05-23T04:05:16.396Z,98211.27
2019-05-23T04:07:45.909Z,98207.52
2019-05-23T04:10:15.483Z,98208.70
2019-05-23T04:12:45.007Z,98210.37
2019-05-23T04:15:14.985Z,98213.27
2019-05-23T04:17:44.684Z,98208.18
2019-05-23T04:20:14.595Z,98214.12
2019-05-23T04:22:44.389Z,98211.04
2019-05-23T04:25:14.094Z,98212.27
2019-05-23T04:27:43.546Z,98216.02
2019-05-23T04:30:13.158Z,98216.80
2019-05-23T04:32:42.602Z,98215.91
2019-05-23T04:35:12.361Z,98210.62
2019-05-23T04:37:42.334Z,98205.89
2019-05-23T04:40:13.307Z,98211.42
2019-05-23T04:42:42.817Z,98209.31
2019-05-23T04:45:12.768Z,98217.00
2019-05-23T04:47:42.475Z,98211.49
2019-05-23T04:50:14.353Z,98207.92
2019-05-23T04:52:44.102Z,98213.47
2019-05-23T04:55:15.281Z,98212.21
2019-05-23T04:57:45.535Z,98214.29
2019-05-23T05:00:20.190Z,98208.77
2019-05-23T05:02:49.768Z,98211.70
2019-05-23T05:05:19.764Z,98205.19
2019-05-23T05:07:49.745Z,98202.58
2019-05-23T05:10:22.428Z,98204.28
2019-05-23T05:12:52.170Z,98203.26
2019-05-23T05:15:23.244Z,98207.45
2019-05-23T05:17:52.820Z,98208.24
2019-05-23T05:20:22.502Z,98210.28
2019-05-23T05:22:52.419Z,98216.55
2019-05-23T05:25:21.947Z,98221.45
2019-05-23T05:27:51.729Z,98221.27
2019-05-23T05:30:21.444Z,98225.13
2019-05-23T05:32:51.212Z,98222.19
2019-05-23T05:35:20.735Z,98222.88
2019-05-23T05:37:50.191Z,98221.78
2019-05-23T05:40:20.043Z,98221.23
2019-05-23T05:42:49.502Z,98220.56
2019-05-23T05:45:19.586Z,98232.45
2019-05-23T05:47:49.054Z,98231.90
2019-05-23T05:50:18.834Z,98231.63
2019-05-23T05:52:48.542Z,98226.15
2019-05-23T05:55:18.005Z,98230.30
2019-05-23T05:57:47.456Z,98229.28
2019-05-23T06:00:27.389Z,98233.77
2019-05-23T06:03:04.084Z,98239.23
2019-05-23T06:05:48.473Z,98229.05
2019-05-23T06:08:19.565Z,98230.33
2019-05-23T06:10:49.251Z,98233.63
2019-05-23T06:13:18.782Z,98231.22
2019-05-23T06:15:48.918Z,98234.19
2019-05-23T06:18:19.291Z,98234.94
2019-05-23T06:20:49.868Z,98240.39
2019-05-23T06:23:20.057Z,98238.22
2019-05-23T06:25:49.862Z,98239.81
2019-05-23T06:28:20.325Z,98239.64
2019-05-23T06:30:51.414Z,98238.45
2019-05-23T06:33:23.987Z,98233.52
2019-05-23T06:35:52.905Z,98235.42
2019-05-23T06:38:23.218Z,98235.86
2019-05-23T06:40:54.627Z,98235.77
2019-05-23T06:43:24.815Z,98229.61
2019-05-23T06:45:54.553Z,98227.09
2019-05-23T06:48:24.210Z,98231.09
2019-05-23T06:50:53.747Z,98236.20
2019-05-23T06:53:23.267Z,98232.61
2019-05-23T06:55:52.714Z,98228.52
2019-05-23T06:58:23.228Z,98229.66
2019-05-23T07:00:53.063Z,98223.80
2019-05-23T07:03:39.913Z,98228.13
2019-05-23T07:05:53.972Z,98232.30
2019-05-23T07:08:28.055Z,98229.22
2019-05-23T07:10:57.599Z,98227.70
2019-05-23T07:13:29.723Z,98232.41
2019-05-23T07:15:59.502Z,98228.99
2019-05-23T07:18:29.166Z,98230.05
2019-05-23T07:20:58.612Z,98220.88
2019-05-23T07:23:28.480Z,98226.66
2019-05-23T07:25:57.949Z,98227.13
2019-05-23T07:28:27.387Z,98227.72
2019-05-23T07:30:56.996Z,98231.94
2019-05-23T07:33:26.511Z,98228.98
2019-05-23T07:35:56.620Z,98234.08
2019-05-23T07:38:26.068Z,98232.52
2019-05-23T07:40:56.963Z,98232.98
2019-05-23T07:43:26.509Z,98229.78
2019-05-23T07:45:59.198Z,98235.26
2019-05-23T07:48:29.339Z,98236.03
2019-05-23T07:50:58.974Z,98236.24
2019-05-23T07:53:43.737Z,98231.38
2019-05-23T07:56:13.362Z,98231.57
2019-05-23T07:58:43.274Z,98229.58
2019-05-23T08:01:14.759Z,98228.05
2019-05-23T08:03:45.357Z,98220.55
2019-05-23T08:06:15.451Z,98225.97
2019-05-23T08:08:44.919Z,98228.05
2019-05-23T08:11:14.394Z,98224.69
2019-05-23T08:13:44.466Z,98226.83
2019-05-23T08:16:13.949Z,98224.80
2019-05-23T08:18:43.855Z,98217.09
2019-05-23T08:21:13.348Z,98211.48
2019-05-23T08:23:42.842Z,98210.11
2019-05-23T08:26:13.069Z,98206.50
2019-05-23T08:29:11.396Z,98203.33
2019-05-23T08:31:13.884Z,98202.58
2019-05-23T08:33:43.775Z,98204.67
2019-05-23T08:36:13.385Z,98203.75
2019-05-23T08:38:42.849Z,98201.94
2019-05-23T08:41:12.408Z,98200.98
2019-05-23T08:43:41.932Z,98193.13
2019-05-23T08:46:12.537Z,98188.78
2019-05-23T08:48:42.141Z,98182.08
2019-05-23T08:51:11.699Z,98161.97
2019-05-23T08:53:41.194Z,98176.45
2019-05-23T08:56:19.165Z,98179.00
2019-05-23T08:58:42.548Z,98177.15
2019-05-23T09:01:11.999Z,98180.28
2019-05-23T09:06:11.232Z,98174.80
2019-05-23T09:08:41.463Z,98174.95
2019-05-23T09:11:11.242Z,98179.55
2019-05-23T09:13:40.828Z,98178.39
2019-05-23T09:16:10.815Z,98167.20
2019-05-23T09:18:40.321Z,98168.09
2019-05-23T09:21:10.159Z,98167.25
2019-05-23T09:23:39.875Z,98159.23
2019-05-23T09:26:09.344Z,98160.33
2019-05-23T09:28:39.094Z,98163.63
2019-05-23T09:31:09.146Z,98162.28
2019-05-23T09:33:38.774Z,98162.99
2019-05-23T09:36:08.747Z,98157.62
2019-05-23T09:38:38.445Z,98159.13
2019-05-23T09:41:07.903Z,98155.27
2019-05-23T09:43:37.488Z,98151.09
2019-05-23T09:46:06.955Z,98162.39
2019-05-23T09:48:36.641Z,98151.15
2019-05-23T09:51:06.088Z,98156.67
2019-05-23T09:53:35.573Z,98152.17
2019-05-23T09:56:05.163Z,98147.51
2019-05-23T09:58:34.607Z,98145.64
2019-05-23T10:01:04.509Z,98148.23
2019-05-23T10:03:33.958Z,98141.58
2019-05-23T10:06:03.405Z,98143.94
2019-05-23T10:08:33.007Z,98146.92
2019-05-23T10:11:02.457Z,98147.02
2019-05-23T10:13:39.011Z,98145.28
2019-05-23T10:16:07.892Z,98142.63
2019-05-23T10:18:37.522Z,98149.64
2019-05-23T10:21:07.037Z,98147.44
2019-05-23T10:23:36.647Z,98149.37
2019-05-23T10:26:06.738Z,98144.91
2019-05-23T10:28:36.312Z,98137.66
2019-05-23T10:31:07.064Z,98139.33
2019-05-23T10:33:36.686Z,98138.36
2019-05-23T10:36:06.284Z,98134.76
2019-05-23T10:38:35.739Z,98132.63
2019-05-23T10:41:05.623Z,98131.23
2019-05-23T10:43:35.091Z,98127.44
2019-05-23T10:46:04.878Z,98119.05
2019-05-23T10:48:34.580Z,98119.92
2019-05-23T10:51:04.115Z,98118.02
2019-05-23T10:53:33.672Z,98114.97
2019-05-23T10:56:03.271Z,98105.73
2019-05-23T10:58:33.446Z,98102.14
2019-05-23T11:01:03.503Z,98097.36
2019-05-23T11:03:33.461Z,98097.25
2019-05-23T11:06:15.591Z,98100.90
2019-05-23T11:08:36.376Z,98094.17
2019-05-23T11:11:07.739Z,98089.88
2019-05-23T11:13:37.188Z,98090.88
2019-05-23T11:16:06.643Z,98084.34
2019-05-23T11:18:36.124Z,98091.75
2019-05-23T11:21:06.107Z,98089.13
2019-05-23T11:23:37.261Z,98088.98
2019-05-23T11:26:08.233Z,98083.91
2019-05-23T11:28:37.740Z,98088.53
2019-05-23T11:31:09.169Z,98084.52
2019-05-23T11:33:38.637Z,98091.84
2019-05-23T11:36:08.083Z,98083.64
2019-05-23T11:38:37.668Z,98084.73
2019-05-23T11:41:07.436Z,98081.08
2019-05-23T11:43:36.889Z,98079.02
2019-05-23T11:46:17.247Z,98071.88
2019-05-23T11:48:46.775Z,98073.88
2019-05-23T11:51:16.977Z,98070.47
2019-05-23T11:54:04.068Z,98067.34
2019-05-23T11:56:17.760Z,98063.72
2019-05-23T11:58:47.257Z,98054.58
2019-05-23T12:01:21.242Z,98031.08
2019-05-23T12:03:51.892Z,98058.63
2019-05-23T12:06:25.738Z,98046.52
2019-05-23T12:08:53.259Z,98046.69
2019-05-23T12:11:22.776Z,98052.01
2019-05-23T12:13:52.290Z,98053.47
2019-05-23T12:16:23.357Z,98042.71
2019-05-23T12:18:53.265Z,98040.66
2019-05-23T12:21:23.525Z,98042.73
2019-05-23T12:23:53.098Z,98041.71
2019-05-23T12:26:22.645Z,98042.66
2019-05-23T12:28:52.093Z,98044.91
2019-05-23T12:31:21.682Z,98044.97
2019-05-23T12:33:51.146Z,98048.06
2019-05-23T12:36:20.742Z,98042.30
2019-05-23T12:38:51.808Z,98035.28
2019-05-23T12:41:21.454Z,98036.30
2019-05-23T12:43:50.918Z,98035.08
2019-05-23T12:46:20.426Z,98025.59
2019-05-23T12:48:51.590Z,98020.41
2019-05-23T12:51:25.521Z,98019.54
2019-05-23T12:53:56.603Z,98018.76
2019-05-23T12:56:26.589Z,98022.89
2019-05-23T12:58:56.433Z,98022.01
2019-05-23T13:01:27.049Z,98020.63
2019-05-23T13:03:56.823Z,98014.16
2019-05-23T13:06:26.918Z,98018.69
2019-05-23T13:08:56.440Z,98015.19
2019-05-23T13:11:25.964Z,98016.02
2019-05-23T13:13:55.479Z,98018.97
2019-05-23T13:16:25.311Z,98020.75
2019-05-23T13:18:54.819Z,98020.03
2019-05-23T13:21:24.282Z,98017.44
2019-05-23T13:23:55.747Z,98013.30
2019-05-23T13:26:25.168Z,98013.23
2019-05-23T13:28:54.614Z,98021.20
2019-05-23T13:31:24.146Z,98015.72
2019-05-23T13:33:56.242Z,98008.19
2019-05-23T13:36:24.961Z,98006.27
2019-05-23T13:38:54.404Z,98001.48
2019-05-23T13:41:23.987Z,98001.88
2019-05-23T13:43:53.793Z,97999.25
2019-05-23T13:46:23.265Z,97992.52
2019-05-23T13:48:52.834Z,97996.39
2019-05-23T13:51:22.312Z,97994.63
2019-05-23T13:53:51.769Z,97993.34
2019-05-23T13:56:21.581Z,97988.66
2019-05-23T13:58:51.096Z,97992.11
2019-05-23T14:01:21.334Z,97991.95
2019-05-23T14:03:51.000Z,97990.01
2019-05-23T14:06:20.460Z,97993.79
2019-05-23T14:08:49.909Z,97989.32
2019-05-23T14:11:19.405Z,97985.39
2019-05-23T14:13:58.328Z,97983.86
2019-05-23T14:16:20.525Z,97981.97
2019-05-23T14:18:50.253Z,97986.97
2019-05-23T14:21:19.888Z,97982.06
2019-05-23T14:23:49.395Z,97972.17
2019-05-23T14:26:19.893Z,97972.75
2019-05-23T14:28:49.363Z,97974.34
2019-05-23T14:31:19.031Z,97968.06
2019-05-23T14:33:50.187Z,97973.50
2019-05-23T14:36:37.031Z,97976.64
2019-05-23T14:39:10.345Z,97976.01
2019-05-23T14:41:45.681Z,97970.78
2019-05-23T14:44:15.328Z,97974.67
2019-05-23T14:46:46.452Z,97970.39
2019-05-23T14:49:20.017Z,97973.09
2019-05-23T14:51:53.799Z,97964.02
2019-05-23T14:54:30.874Z,97962.43
2019-05-23T14:57:00.352Z,97959.88
2019-05-23T14:59:30.516Z,97963.98
2019-05-23T15:02:00.473Z,97960.48
2019-05-23T15:04:30.209Z,97955.07
2019-05-23T15:06:59.653Z,97962.69
2019-05-23T15:09:29.185Z,97956.69
2019-05-23T15:11:59.144Z,97960.03
2019-05-23T15:14:28.568Z,97958.05
2019-05-23T15:16:58.036Z,97955.34
2019-05-23T15:19:41.782Z,97955.36
2019-05-23T15:21:58.662Z,97956.42
2019-05-23T15:24:28.970Z,97952.52
2019-05-23T15:26:58.648Z,97955.49
2019-05-23T15:29:29.235Z,97952.35
2019-05-23T15:32:02.840Z,97949.92
2019-05-23T15:34:30.155Z,97947.06
2019-05-23T15:36:59.599Z,97944.63
2019-05-23T15:39:29.636Z,97946.06
2019-05-23T15:41:59.167Z,97946.66
2019-05-23T15:44:30.170Z,97944.04
2019-05-23T15:46:59.885Z,97939.41
2019-05-23T15:49:30.124Z,97938.88
2019-05-23T15:52:01.297Z,97949.57
2019-05-23T15:54:41.387Z,97947.47
2019-05-23T15:57:18.327Z,97944.88
2019-05-23T16:00:01.561Z,97940.30
2019-05-23T16:02:38.407Z,97936.48
2019-05-23T16:05:10.683Z,97929.13
2019-05-23T16:07:40.128Z,97924.82
2019-05-23T16:10:10.627Z,97926.02
2019-05-23T16:12:40.087Z,97927.50
2019-05-23T16:15:09.734Z,97926.13
2019-05-23T16:17:39.305Z,97921.55
2019-05-23T16:20:09.266Z,97921.09
2019-05-23T16:22:38.726Z,97918.05
2019-05-23T16:25:08.511Z,97917.00
2019-05-23T16:27:38.365Z,97918.55
2019-05-23T16:30:09.152Z,97923.24
2019-05-23T16:32:38.613Z,97914.55
2019-05-23T16:35:08.156Z,97913.22
2019-05-23T16:37:37.667Z,97911.44
2019-05-23T16:40:09.476Z,97913.52
2019-05-23T16:42:38.944Z,97911.89
2019-05-23T16:45:08.925Z,97914.61
2019-05-23T16:47:38.848Z,97910.56
2019-05-23T16:50:08.866Z,97906.38
2019-05-23T16:52:38.493Z,97910.05
2019-05-23T16:55:09.656Z,97904.42
2019-05-23T16:57:38.881Z,97907.42
2019-05-23T17:00:14.585Z,97902.64
2019-05-23T17:02:45.686Z,97909.22
2019-05-23T17:05:32.976Z,97903.95
2019-05-23T17:08:10.042Z,97901.03
2019-05-23T17:10:42.076Z,97899.58
2019-05-23T17:13:29.435Z,97899.81
2019-05-23T17:16:01.621Z,97895.90
2019-05-23T17:18:32.841Z,97896.19
2019-05-23T17:21:06.885Z,97891.02
2019-05-23T17:23:38.214Z,97899.59
2019-05-23T17:26:21.242Z,97894.94
2019-05-23T17:28:54.918Z,97898.16
2019-05-23T17:31:29.109Z,97906.09
2019-05-23T17:33:58.632Z,97901.82
2019-05-23T17:36:28.091Z,97901.69
2019-05-23T17:38:57.811Z,97894.55
2019-05-23T17:41:27.622Z,97898.59
2019-05-23T17:43:57.086Z,97896.17
2019-05-23T17:46:26.569Z,97899.47
2019-05-23T17:48:56.144Z,97900.18
2019-05-23T17:51:25.858Z,97897.83
2019-05-23T17:53:55.401Z,97900.06
2019-05-23T17:56:25.144Z,97896.70
2019-05-23T17:58:54.655Z,97894.89
2019-05-23T18:01:25.736Z,97895.80
2019-05-23T18:03:55.196Z,97893.86
2019-05-23T18:06:25.151Z,97880.80
2019-05-23T18:08:54.758Z,97895.64
2019-05-23T18:11:24.680Z,97887.03
2019-05-23T18:13:54.335Z,97890.05
2019-05-23T18:16:24.288Z,97896.95
2019-05-23T18:18:53.889Z,97898.41
2019-05-23T18:21:23.994Z,97895.02
2019-05-23T18:23:53.945Z,97894.36
2019-05-23T18:26:23.389Z,97896.92
2019-05-23T18:28:53.289Z,97898.83
2019-05-23T18:31:24.374Z,97895.20
2019-05-23T18:33:54.142Z,97894.20
2019-05-23T18:36:23.662Z,97885.99
2019-05-23T18:38:53.864Z,97892.48
2019-05-23T18:41:23.344Z,97887.07
2019-05-23T18:43:53.328Z,97892.09
2019-05-23T18:46:24.563Z,97898.05
2019-05-23T18:48:55.680Z,97897.69
2019-05-23T18:51:25.302Z,97905.98
2019-05-23T18:53:54.976Z,97894.98
2019-05-23T18:56:24.602Z,97896.34
2019-05-23T18:58:54.131Z,97891.55
2019-05-23T19:01:25.797Z,97896.36
2019-05-23T19:03:59.518Z,97893.45
2019-05-23T19:06:29.571Z,97897.44
2019-05-23T19:08:59.109Z,97897.22
2019-05-23T19:11:28.639Z,97897.78
2019-05-23T19:13:58.271Z,97900.83
2019-05-23T19:16:28.350Z,97902.56
2019-05-23T19:18:58.245Z,97905.34
2019-05-23T19:21:28.526Z,97905.75
2019-05-23T19:23:58.233Z,97901.73
2019-05-23T19:26:28.101Z,97902.19
2019-05-23T19:28:57.803Z,97904.69
2019-05-23T19:31:27.703Z,97900.94
2019-05-23T19:33:58.502Z,97900.59
2019-05-23T19:36:28.245Z,97905.78
2019-05-23T19:38:57.699Z,97902.33
2019-05-23T19:41:36.816Z,97907.22
2019-05-23T19:43:58.547Z,97911.77
2019-05-23T19:46:28.084Z,97912.48
2019-05-23T19:48:57.963Z,97911.84
2019-05-23T19:51:27.702Z,97911.46
2019-05-23T19:53:58.852Z,97913.98
2019-05-23T19:56:28.953Z,97916.88
2019-05-23T19:58:58.565Z,97910.22
2019-05-23T20:01:32.290Z,97914.59
2019-05-23T20:04:00.916Z,97910.45
2019-05-23T20:06:31.493Z,97914.53
2019-05-23T20:09:01.727Z,97910.44
2019-05-23T20:11:31.314Z,97909.58
2019-05-23T20:14:00.951Z,97919.00
2019-05-23T20:16:30.745Z,97913.95
2019-05-23T20:19:00.261Z,97910.04
2019-05-23T20:21:29.994Z,97911.06
2019-05-23T20:23:59.612Z,97915.84
2019-05-23T20:26:29.133Z,97914.03
2019-05-23T20:28:58.640Z,97910.50
2019-05-23T20:31:28.161Z,97910.55
2019-05-23T20:33:59.522Z,97917.25
2019-05-23T20:36:28.947Z,97915.73
2019-05-23T20:38:58.470Z,97919.25
2019-05-23T20:41:28.384Z,97919.79
2019-05-23T20:43:59.453Z,97918.14
2019-05-23T20:46:28.970Z,97919.38
2019-05-23T20:48:58.438Z,97921.39
2019-05-23T20:51:27.953Z,97925.14
2019-05-23T20:53:57.463Z,97925.74
2019-05-23T20:56:26.923Z,97922.95
2019-05-23T20:58:56.368Z,97927.56
2019-05-23T21:01:33.214Z,97922.41
2019-05-23T21:04:02.699Z,97927.27
2019-05-23T21:06:32.182Z,97925.13
2019-05-23T21:09:01.644Z,97929.66
2019-05-23T21:11:31.319Z,97929.26
2019-05-23T21:14:00.832Z,97929.53
2019-05-23T21:16:30.359Z,97934.76
2019-05-23T21:19:00.007Z,97936.06
2019-05-23T21:21:29.522Z,97932.31
2019-05-23T21:23:59.129Z,97932.20
2019-05-23T21:26:28.716Z,97922.20
2019-05-23T21:28:58.173Z,97934.45
2019-05-23T21:31:27.767Z,97935.37
2019-05-23T21:33:57.249Z,97928.41
2019-05-23T21:36:26.702Z,97931.20
2019-05-23T21:38:56.163Z,97937.39
2019-05-23T21:41:25.610Z,97929.84
2019-05-23T21:43:56.712Z,97931.45
2019-05-23T21:46:26.208Z,97930.23
2019-05-23T21:48:55.627Z,97929.05
2019-05-23T21:51:25.208Z,97925.91
2019-05-23T21:53:54.678Z,97922.97
2019-05-23T21:56:24.163Z,97923.08
2019-05-23T21:58:53.833Z,97920.20
2019-05-23T22:01:24.367Z,97928.91
2019-05-23T22:04:05.174Z,97926.73
2019-05-23T22:06:39.350Z,97924.56
2019-05-23T22:09:10.673Z,97928.63
2019-05-23T22:11:40.197Z,97922.25
2019-05-23T22:14:09.913Z,97920.61
2019-05-23T22:16:39.530Z,97918.64
2019-05-23T22:19:10.590Z,97920.39
2019-05-23T22:21:40.047Z,97919.75
2019-05-23T22:24:09.739Z,97915.30
2019-05-23T22:26:39.182Z,97913.53
2019-05-23T22:29:09.212Z,97910.48
2019-05-23T22:31:38.894Z,97914.53
2019-05-23T22:34:15.663Z,97908.45
2019-05-23T22:36:45.116Z,97912.59
2019-05-23T22:39:14.569Z,97910.66
2019-05-23T22:41:44.026Z,97909.62
2019-05-23T22:44:13.816Z,97905.16
2019-05-23T22:46:43.523Z,97905.05
2019-05-23T22:49:12.970Z,97901.17
2019-05-23T22:51:42.413Z,97899.91
2019-05-23T22:54:11.882Z,97901.94
2019-05-23T22:56:41.403Z,97903.63
2019-05-23T22:59:10.917Z,97903.98
2019-05-23T23:01:40.460Z,97910.34
2019-05-23T23:04:11.070Z,97911.03
2019-05-23T23:06:40.514Z,97907.61
2019-05-23T23:09:10.037Z,97904.12
2019-05-23T23:11:39.668Z,97903.13
2019-05-23T23:14:09.113Z,97903.91
2019-05-23T23:16:38.561Z,97901.69
2019-05-23T23:19:08.350Z,97907.31
2019-05-23T23:21:37.843Z,97903.76
2019-05-23T23:24:07.306Z,97898.98
2019-05-23T23:26:36.750Z,97897.92
2019-05-23T23:29:06.587Z,97903.52
2019-05-23T23:31:36.033Z,97910.77
2019-05-23T23:34:05.548Z,97901.95
2019-05-23T23:36:35.008Z,97908.75
2019-05-23T23:39:05.535Z,97907.88
2019-05-23T23:41:35.002Z,97899.67
2019-05-23T23:44:05.227Z,97897.17
2019-05-23T23:46:52.080Z,97897.84
2019-05-23T23:49:39.333Z,97900.39
2019-05-23T23:52:26.502Z,97901.61
2019-05-23T23:55:13.583Z,97899.59
2019-05-23T23:58:00.020Z,97899.65
